Time;durP1;ratioP1;P1;durP2;ratioP2;P2;SDS_P1;SDS_P2;PMS_P1;PMS_P2;Temp;Humidity;BMP_temperature;BMP_pressure;BME280_temperature;BME280_humidity;BME280_pressure;Samples;Min_cycle;Max_cycle;Signal;HPM_P1;HPM_P2
2022/12/21 00:01:52;;;;;;;18.40;10.77;;;3.30;1.00;;;;;;8270654;28;20188;-68
2022/12/21 00:05:57;;;;;;;17.53;11.20;;;3.40;1.00;;;;;;8270684;28;20526;-68
2022/12/21 00:09:58;;;;;;;13.63;9.23;;;3.50;1.00;;;;;;8270486;28;20191;-68
2022/12/21 00:14:00;;;;;;;15.63;9.87;;;3.60;1.00;;;;;;8268764;28;20282;-68
2022/12/21 00:18:01;;;;;;;18.40;10.93;;;3.70;1.00;;;;;;8254685;28;20183;-68
2022/12/21 00:22:02;;;;;;;15.83;9.80;;;3.90;99.90;;;;;;8268613;28;20188;-68
2022/12/21 00:26:05;;;;;;;15.63;10.60;;;4.00;99.90;;;;;;8254365;28;20253;-68
2022/12/21 00:30:07;;;;;;;18.23;9.73;;;4.10;99.90;;;;;;8274069;28;20192;-68
2022/12/21 00:34:10;;;;;;;16.20;8.97;;;4.20;99.90;;;;;;8269106;28;20261;-68
2022/12/21 00:38:11;;;;;;;15.00;9.73;;;4.30;99.90;;;;;;8271893;28;20195;-68
2022/12/21 00:42:14;;;;;;;15.67;9.03;;;4.30;99.90;;;;;;8271734;28;20203;-68
2022/12/21 00:46:21;;;;;;;13.73;8.83;;;4.30;99.90;;;;;;8267901;28;20220;-68
2022/12/21 00:50:22;;;;;;;13.83;8.27;;;4.40;99.90;;;;;;8271566;28;20183;-68
2022/12/21 00:54:22;;;;;;;15.73;9.37;;;4.50;99.90;;;;;;8274149;28;20199;-68
2022/12/21 00:58:25;;;;;;;14.07;8.47;;;4.60;99.90;;;;;;8272932;28;20210;-68
2022/12/21 01:02:25;;;;;;;13.23;8.23;;;4.70;99.90;;;;;;8250903;28;20191;-68
2022/12/21 01:06:33;;;;;;;13.33;9.07;;;4.70;99.90;;;;;;8270289;28;20215;-68
2022/12/21 01:10:34;;;;;;;13.33;8.23;;;4.80;99.90;;;;;;8271632;28;20273;-68
2022/12/21 01:14:35;;;;;;;10.70;7.80;;;4.80;99.90;;;;;;8272093;28;20187;-68
2022/12/21 01:18:36;;;;;;;11.93;8.07;;;4.80;99.90;;;;;;8272143;28;20213;-68
2022/12/21 01:22:36;;;;;;;12.07;7.47;;;4.70;99.90;;;;;;8263234;28;20191;-68
2022/12/21 01:26:37;;;;;;;16.23;8.90;;;4.80;99.90;;;;;;8270360;28;20281;-69
2022/12/21 01:30:39;;;;;;;13.83;7.93;;;4.80;99.90;;;;;;8277872;28;20219;-70
2022/12/21 01:34:39;;;;;;;13.43;7.97;;;4.80;99.90;;;;;;8272096;28;20227;-70
2022/12/21 01:38:41;;;;;;;12.33;7.80;;;4.90;99.90;;;;;;8272991;28;20304;-70
2022/12/21 01:42:42;;;;;;;12.97;8.80;;;4.90;99.90;;;;;;8264589;28;20196;-70
2022/12/21 01:46:47;;;;;;;15.30;8.67;;;4.80;99.90;;;;;;8275977;28;20218;-68
2022/12/21 01:51:00;;;;;;;13.37;8.60;;;4.80;99.90;;;;;;8278232;28;20192;-70
2022/12/21 01:55:05;;;;;;;13.63;8.20;;;4.80;99.90;;;;;;8279076;28;20207;-68
2022/12/21 01:59:12;;;;;;;14.67;8.73;;;4.80;99.90;;;;;;8276883;28;20195;-68
2022/12/21 02:03:19;;;;;;;14.23;8.83;;;4.70;99.90;;;;;;8267826;28;20214;-68
2022/12/21 02:07:21;;;;;;;13.53;8.30;;;4.60;99.90;;;;;;8272895;28;20194;-68
2022/12/21 02:11:22;;;;;;;13.77;9.67;;;4.60;99.90;;;;;;8276510;28;20254;-68
2022/12/21 02:15:46;;;;;;;12.37;8.20;;;4.60;99.90;;;;;;8272341;28;20191;-68
2022/12/21 02:20:15;;;;;;;12.87;8.13;;;4.60;99.90;;;;;;8273417;28;20288;-70
2022/12/21 02:24:28;;;;;;;14.33;7.57;;;4.60;99.90;;;;;;8269504;28;20243;-70
2022/12/21 02:28:45;;;;;;;12.50;7.87;;;4.70;99.90;;;;;;8277480;28;20191;-69
2022/12/21 02:33:12;;;;;;;13.60;8.07;;;4.80;99.90;;;;;;8278848;28;20464;-70
2022/12/21 02:38:03;;;;;;;12.83;7.73;;;4.80;99.90;;;;;;8271558;28;20191;-67
2022/12/21 02:46:41;;;;;;;11.90;7.30;;;4.90;99.90;;;;;;8274694;28;20278;-68
2022/12/21 02:50:49;;;;;;;10.80;7.17;;;4.90;99.90;;;;;;8272783;28;20183;-68
2022/12/21 02:54:57;;;;;;;13.80;7.57;;;4.90;99.90;;;;;;8275596;28;20242;-68
2022/12/21 02:58:58;;;;;;;12.03;7.30;;;4.90;99.90;;;;;;8274986;28;20350;-67
2022/12/21 03:08:07;;;;;;;12.10;8.20;;;4.90;99.90;;;;;;8273758;28;20243;-69
2022/12/21 03:12:19;;;;;;;12.40;7.50;;;5.00;99.90;;;;;;8267313;28;20194;-68
2022/12/21 03:16:50;;;;;;;16.20;7.90;;;5.00;99.90;;;;;;8270337;28;20196;-68
2022/12/21 03:20:56;;;;;;;12.47;8.97;;;5.00;99.90;;;;;;8264369;28;20226;-68
2022/12/21 03:25:04;;;;;;;11.50;7.73;;;5.00;99.90;;;;;;8266643;28;20215;-68
2022/12/21 03:29:08;;;;;;;15.23;8.57;;;4.90;99.90;;;;;;8266629;28;20207;-68
2022/12/21 03:33:17;;;;;;;12.77;8.53;;;4.90;99.90;;;;;;8266672;28;20254;-68
2022/12/21 03:37:35;;;;;;;12.63;7.57;;;4.90;99.90;;;;;;8266987;28;20187;-69
2022/12/21 03:42:03;;;;;;;15.17;7.87;;;4.90;99.90;;;;;;8268968;28;20274;-68
2022/12/21 03:46:08;;;;;;;10.57;7.43;;;5.00;99.90;;;;;;8263538;28;20314;-67
2022/12/21 03:50:16;;;;;;;9.87;6.97;;;5.00;99.90;;;;;;8250706;28;20187;-68
2022/12/21 03:54:35;;;;;;;12.43;7.73;;;5.00;99.90;;;;;;8265604;28;20191;-68
2022/12/21 03:58:36;;;;;;;12.00;7.03;;;5.00;99.90;;;;;;8265193;28;20187;-68
2022/12/21 04:03:12;;;;;;;11.37;7.63;;;5.00;99.90;;;;;;8264933;28;20184;-68
2022/12/21 04:07:15;;;;;;;10.07;7.20;;;5.10;99.90;;;;;;8264856;28;20191;-67
2022/12/21 04:19:57;;;;;;;12.00;7.00;;;5.10;99.90;;;;;;8269764;28;20615;-68
2022/12/21 04:28:28;;;;;;;10.60;6.97;;;5.10;99.90;;;;;;8269092;28;20218;-68
2022/12/21 04:32:29;;;;;;;10.37;6.97;;;5.00;99.90;;;;;;8267384;28;20195;-68
2022/12/21 04:40:53;;;;;;;10.93;6.97;;;5.00;99.90;;;;;;8275803;28;20199;-68
2022/12/21 04:44:54;;;;;;;12.43;6.93;;;5.00;99.90;;;;;;8268118;28;20212;-68
2022/12/21 04:48:55;;;;;;;12.00;7.57;;;5.00;99.90;;;;;;8255149;28;20202;-68
2022/12/21 04:52:55;;;;;;;11.80;7.30;;;5.10;99.90;;;;;;8271547;28;20309;-68
2022/12/21 04:56:56;;;;;;;10.37;7.03;;;5.20;99.90;;;;;;8273977;28;20222;-68
2022/12/21 05:00:58;;;;;;;12.53;7.43;;;5.20;99.90;;;;;;8273607;28;20210;-69
2022/12/21 05:04:58;;;;;;;11.03;7.03;;;5.30;99.90;;;;;;8271965;28;20547;-68
2022/12/21 05:08:59;;;;;;;10.13;7.63;;;5.30;99.90;;;;;;8269386;28;20223;-69
2022/12/21 05:13:00;;;;;;;10.43;7.20;;;5.30;99.90;;;;;;8272015;28;20191;-68
2022/12/21 05:17:01;;;;;;;12.40;7.40;;;5.40;99.90;;;;;;8267908;28;20198;-68
2022/12/21 05:21:02;;;;;;;11.57;7.50;;;5.40;99.90;;;;;;8271299;28;20237;-68
2022/12/21 05:25:03;;;;;;;12.30;7.93;;;5.40;99.90;;;;;;8274715;28;20250;-68
2022/12/21 05:29:04;;;;;;;11.13;7.23;;;5.40;99.90;;;;;;8269836;28;20246;-68
2022/12/21 05:33:05;;;;;;;11.47;7.30;;;5.30;99.90;;;;;;8274215;28;20204;-68
2022/12/21 05:37:07;;;;;;;10.83;6.57;;;5.30;99.90;;;;;;8273651;28;20201;-68
2022/12/21 05:41:10;;;;;;;12.43;7.10;;;5.40;99.90;;;;;;8271212;28;20265;-70
2022/12/21 05:45:11;;;;;;;11.27;6.83;;;5.40;99.90;;;;;;8258531;28;20219;-68
2022/12/21 05:49:12;;;;;;;12.00;7.43;;;5.40;99.90;;;;;;8257769;28;20192;-68
2022/12/21 05:53:13;;;;;;;11.93;7.63;;;5.40;99.90;;;;;;8269276;28;20199;-70
2022/12/21 05:57:14;;;;;;;12.73;7.67;;;5.40;99.90;;;;;;8266290;28;20196;-68
2022/12/21 06:01:15;;;;;;;13.50;7.90;;;5.50;99.90;;;;;;8269126;28;20225;-68
2022/12/21 06:05:16;;;;;;;12.07;7.97;;;5.50;99.90;;;;;;8269019;28;20245;-68
2022/12/21 06:09:17;;;;;;;14.00;7.80;;;5.60;99.90;;;;;;8266220;28;20191;-68
2022/12/21 06:13:18;;;;;;;10.47;6.87;;;5.50;99.90;;;;;;8254733;28;20188;-68
2022/12/21 06:17:18;;;;;;;12.10;6.97;;;5.50;99.90;;;;;;8266163;28;20413;-68
2022/12/21 06:21:20;;;;;;;10.53;6.47;;;5.60;99.90;;;;;;8258808;28;20209;-68
2022/12/21 06:25:21;;;;;;;12.43;7.90;;;5.60;99.90;;;;;;8253958;28;20228;-68
2022/12/21 06:29:22;;;;;;;12.63;7.03;;;5.70;99.90;;;;;;8264921;28;20195;-68
2022/12/21 06:33:23;;;;;;;9.60;6.60;;;5.70;99.90;;;;;;8267384;28;20233;-68
2022/12/21 06:37:24;;;;;;;11.80;7.90;;;5.70;99.90;;;;;;8247866;28;20282;-68
2022/12/21 06:41:25;;;;;;;10.77;7.10;;;5.70;99.90;;;;;;8268089;28;20188;-68
2022/12/21 06:45:26;;;;;;;12.77;7.57;;;5.70;99.90;;;;;;8267198;28;20214;-68
2022/12/21 06:49:27;;;;;;;14.23;6.90;;;5.60;99.90;;;;;;8270503;28;20615;-68
2022/12/21 06:53:34;;;;;;;11.77;6.97;;;5.70;99.90;;;;;;8265282;28;20180;-68
2022/12/21 06:57:35;;;;;;;12.53;7.83;;;5.70;99.90;;;;;;8266842;28;20198;-68
2022/12/21 07:01:35;;;;;;;13.10;7.87;;;5.70;99.90;;;;;;8265373;28;20198;-68
2022/12/21 07:05:36;;;;;;;14.97;7.73;;;5.70;99.90;;;;;;8267580;28;20365;-68
2022/12/21 07:09:37;;;;;;;13.43;8.50;;;5.70;99.90;;;;;;8253830;28;20195;-68
2022/12/21 07:13:40;;;;;;;13.83;7.57;;;5.70;99.90;;;;;;8262074;28;20648;-68
2022/12/21 07:17:41;;;;;;;15.80;8.47;;;5.70;99.90;;;;;;8267937;28;20186;-68
2022/12/21 07:21:41;;;;;;;12.70;7.57;;;5.70;99.90;;;;;;8267954;28;20191;-68
2022/12/21 07:25:42;;;;;;;17.27;9.47;;;5.70;99.90;;;;;;8262346;28;20205;-69
2022/12/21 07:29:43;;;;;;;13.70;8.10;;;5.70;99.90;;;;;;8262192;28;20628;-68
2022/12/21 07:33:44;;;;;;;14.50;8.80;;;5.80;99.90;;;;;;8270985;28;20223;-68
2022/12/21 07:37:45;;;;;;;14.57;8.33;;;5.80;99.90;;;;;;8271796;28;20195;-68
2022/12/21 07:41:46;;;;;;;12.27;7.73;;;5.80;99.90;;;;;;8264020;28;20190;-68
2022/12/21 07:45:47;;;;;;;15.13;8.50;;;5.80;99.90;;;;;;8263080;28;20248;-69
2022/12/21 07:49:47;;;;;;;15.50;8.20;;;5.90;99.90;;;;;;8264107;28;20189;-68
2022/12/21 07:53:48;;;;;;;13.23;8.17;;;5.90;99.90;;;;;;8269127;28;20187;-68
2022/12/21 07:57:49;;;;;;;11.57;8.47;;;6.00;99.90;;;;;;8265713;28;20188;-68
2022/12/21 08:01:50;;;;;;;15.90;8.83;;;5.90;99.90;;;;;;8285344;28;20294;-69
2022/12/21 08:05:54;;;;;;;15.30;8.87;;;6.00;99.90;;;;;;8267165;28;20564;-68
2022/12/21 08:09:54;;;;;;;14.13;8.30;;;6.00;99.90;;;;;;8265842;28;21533;-68
2022/12/21 08:13:56;;;;;;;12.80;8.73;;;6.00;99.90;;;;;;8269318;28;20191;-68
2022/12/21 08:17:57;;;;;;;13.40;7.70;;;6.10;99.90;;;;;;8277212;28;20187;-69
2022/12/21 08:21:58;;;;;;;12.70;8.17;;;6.10;99.90;;;;;;8272850;28;20576;-69
2022/12/21 08:26:04;;;;;;;14.67;8.50;;;6.20;99.90;;;;;;8273907;28;20207;-69
2022/12/21 08:30:06;;;;;;;13.50;9.03;;;6.30;99.90;;;;;;8274466;28;20226;-69
2022/12/21 08:34:07;;;;;;;13.53;8.63;;;6.40;99.90;;;;;;8275669;28;20305;-68
2022/12/21 08:38:07;;;;;;;15.60;9.83;;;6.60;99.90;;;;;;8274263;28;20190;-69
2022/12/21 08:42:08;;;;;;;14.00;9.13;;;6.70;99.90;;;;;;8272297;28;20248;-69
2022/12/21 08:46:10;;;;;;;13.97;9.20;;;6.70;99.90;;;;;;8278770;28;20210;-69
2022/12/21 08:50:11;;;;;;;12.17;8.17;;;6.70;99.90;;;;;;8268588;28;20271;-68
2022/12/21 08:54:12;;;;;;;17.93;9.30;;;6.70;99.90;;;;;;8274896;28;20195;-69
2022/12/21 08:58:13;;;;;;;14.43;8.93;;;6.80;99.90;;;;;;8271736;28;20195;-68
2022/12/21 09:02:14;;;;;;;16.70;10.07;;;6.70;99.90;;;;;;8277593;28;20286;-69
2022/12/21 09:06:15;;;;;;;14.97;9.53;;;6.80;99.90;;;;;;8277195;28;20215;-69
2022/12/21 09:10:16;;;;;;;14.37;8.93;;;6.90;99.90;;;;;;8275192;28;20195;-69
2022/12/21 09:14:17;;;;;;;15.43;10.23;;;6.90;99.90;;;;;;8274334;28;20222;-69
2022/12/21 09:18:18;;;;;;;13.23;8.80;;;6.90;99.90;;;;;;8275191;28;20187;-68
2022/12/21 09:22:18;;;;;;;13.33;8.70;;;6.90;99.90;;;;;;8277030;28;20191;-68
2022/12/21 09:26:20;;;;;;;13.47;9.30;;;6.90;99.90;;;;;;8268461;28;20222;-69
2022/12/21 09:30:21;;;;;;;15.17;9.60;;;6.80;99.90;;;;;;8273564;28;20195;-68
2022/12/21 09:34:22;;;;;;;14.80;9.13;;;6.80;99.90;;;;;;8274391;28;20219;-68
2022/12/21 09:38:23;;;;;;;15.43;9.33;;;6.70;99.90;;;;;;8269480;28;20187;-69
2022/12/21 09:42:42;;;;;;;14.27;8.87;;;6.60;99.90;;;;;;8269925;28;20206;-69
2022/12/21 09:46:43;;;;;;;14.17;8.87;;;6.60;99.90;;;;;;8286626;28;20215;-69
2022/12/21 09:50:55;;;;;;;15.43;8.73;;;6.60;1.00;;;;;;8286734;28;20221;-69
2022/12/21 09:55:08;;;;;;;14.30;8.90;;;6.60;1.00;;;;;;8287400;28;20195;-70
2022/12/21 09:59:15;;;;;;;13.83;9.20;;;6.60;1.00;;;;;;8272412;28;20543;-69
2022/12/21 10:03:50;;;;;;;14.10;9.03;;;6.60;1.00;;;;;;8272807;28;20200;-70
2022/12/21 10:08:17;;;;;;;12.00;7.93;;;6.60;23.90;;;;;;8275496;28;20202;-69
2022/12/21 10:12:31;;;;;;;13.90;7.93;;;6.60;99.90;;;;;;8272368;28;20267;-69
2022/12/21 10:16:50;;;;;;;13.67;8.90;;;6.60;99.90;;;;;;8266758;28;20204;-69
2022/12/21 10:21:02;;;;;;;14.20;9.53;;;6.70;99.90;;;;;;8270170;28;20247;-69
2022/12/21 10:25:13;;;;;;;14.97;9.23;;;6.70;99.90;;;;;;8269350;28;20207;-69
2022/12/21 10:29:21;;;;;;;14.90;9.37;;;6.70;99.90;;;;;;8285826;28;20282;-69
2022/12/21 10:33:23;;;;;;;16.03;9.60;;;6.70;99.90;;;;;;8273203;28;20309;-69
2022/12/21 10:37:24;;;;;;;15.33;10.27;;;6.70;99.90;;;;;;8269650;28;20215;-69
2022/12/21 10:41:31;;;;;;;14.27;9.97;;;6.70;99.90;;;;;;8269719;28;20266;-69
2022/12/21 10:45:33;;;;;;;19.20;9.03;;;6.80;99.90;;;;;;8265268;28;20223;-69
2022/12/21 10:49:37;;;;;;;13.80;9.13;;;6.80;99.90;;;;;;8266879;28;20194;-69
2022/12/21 10:53:38;;;;;;;14.30;9.30;;;6.80;99.90;;;;;;8271531;28;20195;-69
2022/12/21 10:57:39;;;;;;;15.43;9.23;;;6.70;99.90;;;;;;8283228;28;20274;-68
2022/12/21 11:01:40;;;;;;;13.43;8.97;;;6.70;99.90;;;;;;8273743;28;20196;-69
2022/12/21 11:05:42;;;;;;;14.53;9.60;;;6.70;99.90;;;;;;8270453;28;20261;-69
2022/12/21 11:09:43;;;;;;;13.27;9.17;;;6.70;99.90;;;;;;8274830;28;20259;-69
2022/12/21 11:13:57;;;;;;;14.50;9.07;;;6.70;99.90;;;;;;8264587;28;20236;-69
2022/12/21 11:17:58;;;;;;;12.90;8.37;;;6.80;99.90;;;;;;8283502;28;20210;-68
2022/12/21 11:21:59;;;;;;;12.40;8.93;;;6.90;99.90;;;;;;8267773;28;20190;-70
2022/12/21 11:26:00;;;;;;;12.23;8.10;;;7.00;99.90;;;;;;8275206;28;20210;-68
2022/12/21 11:30:24;;;;;;;11.83;7.87;;;7.20;33.90;;;;;;8269399;28;20179;-68
2022/12/21 11:34:39;;;;;;;12.50;8.10;;;7.30;1.00;;;;;;8268913;28;20227;-68
2022/12/21 11:38:40;;;;;;;14.13;9.10;;;7.20;1.00;;;;;;8282333;28;20196;-68
2022/12/21 11:42:59;;;;;;;12.03;8.50;;;7.20;1.00;;;;;;8263407;28;20258;-68
2022/12/21 11:47:06;;;;;;;12.27;8.17;;;7.10;1.00;;;;;;8281586;28;20216;-68
2022/12/21 11:51:12;;;;;;;14.80;8.87;;;7.10;1.00;;;;;;8283151;28;20277;-68
2022/12/21 11:55:38;;;;;;;11.83;7.90;;;7.10;1.00;;;;;;8280580;28;20258;-69
2022/12/21 11:59:51;;;;;;;13.43;8.90;;;7.10;1.00;;;;;;8267992;28;20192;-68
2022/12/21 12:03:58;;;;;;;12.17;7.67;;;7.10;1.00;;;;;;8270355;28;20289;-68
2022/12/21 12:08:05;;;;;;;11.53;7.60;;;7.10;1.00;;;;;;8266919;28;20187;-68
2022/12/21 12:12:29;;;;;;;12.67;8.67;;;7.20;1.00;;;;;;8265692;28;20214;-68
2022/12/21 12:16:58;;;;;;;14.63;8.97;;;7.20;1.00;;;;;;8263882;28;20190;-68
2022/12/21 12:21:17;;;;;;;11.53;8.00;;;7.20;1.00;;;;;;8267772;28;20198;-70
2022/12/21 12:25:46;;;;;;;11.43;8.07;;;7.30;1.00;;;;;;8283909;28;20282;-68
2022/12/21 12:30:10;;;;;;;11.43;8.20;;;7.40;1.00;;;;;;8284420;28;20358;-69
2022/12/21 12:34:41;;;;;;;11.50;7.93;;;7.50;1.00;;;;;;8266460;28;20231;-68
2022/12/21 12:38:58;;;;;;;12.03;7.53;;;7.40;1.00;;;;;;8264943;28;20492;-68
2022/12/21 12:43:17;;;;;;;11.97;8.27;;;7.40;1.00;;;;;;8269689;28;20187;-69
2022/12/21 12:47:39;;;;;;;12.67;7.90;;;7.40;1.00;;;;;;8281436;28;20218;-71
2022/12/21 12:52:10;;;;;;;12.53;8.13;;;7.40;1.00;;;;;;8266204;28;20184;-69
2022/12/21 12:56:27;;;;;;;10.40;7.43;;;7.50;1.00;;;;;;8280832;28;20231;-70
2022/12/21 13:00:33;;;;;;;13.53;8.03;;;7.50;99.90;;;;;;8287862;28;20259;-69
2022/12/21 13:05:11;;;;;;;10.23;6.87;;;7.50;99.90;;;;;;8277505;28;20211;-69
2022/12/21 13:09:15;;;;;;;10.63;7.53;;;7.40;99.90;;;;;;8288673;28;20188;-69
2022/12/21 13:13:21;;;;;;;8.93;6.57;;;7.30;1.00;;;;;;8285038;28;20192;-68
2022/12/21 13:17:32;;;;;;;10.33;7.63;;;7.30;1.00;;;;;;8269999;28;20586;-67
2022/12/21 13:21:38;;;;;;;9.10;6.43;;;7.30;1.00;;;;;;8287073;28;20215;-68
2022/12/21 13:25:43;;;;;;;9.53;6.37;;;7.20;1.00;;;;;;8270622;28;20216;-68
2022/12/21 13:30:05;;;;;;;9.53;6.03;;;7.20;1.00;;;;;;8276612;28;20190;-70
2022/12/21 13:34:30;;;;;;;7.97;5.70;;;7.20;1.00;;;;;;8267163;28;20233;-68
2022/12/21 13:38:44;;;;;;;7.70;5.63;;;7.20;1.00;;;;;;8272990;28;20207;-68
2022/12/21 13:42:54;;;;;;;8.93;6.33;;;7.10;1.00;;;;;;8286172;28;20216;-68
2022/12/21 13:46:56;;;;;;;6.97;5.33;;;7.10;1.00;;;;;;8266482;28;20226;-68
2022/12/21 13:51:22;;;;;;;7.70;5.03;;;7.10;1.00;;;;;;8278033;28;20192;-68
2022/12/21 13:55:58;;;;;;;8.80;5.87;;;7.10;1.00;;;;;;8285703;28;20249;-68
2022/12/21 14:00:14;;;;;;;9.67;6.93;;;7.10;1.00;;;;;;8287460;28;20195;-68
2022/12/21 14:04:31;;;;;;;10.90;6.50;;;7.00;1.00;;;;;;8270374;28;20211;-68
2022/12/21 14:08:38;;;;;;;10.43;6.33;;;7.00;1.00;;;;;;8281564;28;20282;-67
2022/12/21 14:12:42;;;;;;;8.77;6.20;;;6.90;1.00;;;;;;8271348;28;20246;-69
2022/12/21 14:16:43;;;;;;;8.87;6.33;;;6.90;1.00;;;;;;8271195;28;20255;-68
2022/12/21 14:20:49;;;;;;;10.87;6.50;;;6.90;1.00;;;;;;8281582;28;20624;-68
2022/12/21 14:24:59;;;;;;;10.87;7.27;;;6.90;1.00;;;;;;8268460;28;20210;-68
2022/12/21 14:29:25;;;;;;;9.73;6.37;;;6.90;1.00;;;;;;8268385;28;20183;-68
2022/12/21 14:33:36;;;;;;;9.17;6.43;;;6.90;1.00;;;;;;8268423;28;20310;-68
2022/12/21 14:37:37;;;;;;;8.87;6.50;;;6.90;1.00;;;;;;8268430;28;20269;-68
2022/12/21 14:41:40;;;;;;;10.07;7.10;;;6.90;1.00;;;;;;8284306;28;20195;-68
2022/12/21 14:45:41;;;;;;;8.73;6.27;;;6.90;1.00;;;;;;8269501;28;20208;-68
2022/12/21 14:49:43;;;;;;;10.07;6.40;;;6.90;1.00;;;;;;8266720;28;20419;-68
2022/12/21 14:54:06;;;;;;;9.63;6.80;;;6.90;1.00;;;;;;8263594;28;20195;-68
2022/12/21 14:58:12;;;;;;;9.63;6.43;;;6.90;1.00;;;;;;8285631;28;20306;-68
2022/12/21 15:02:31;;;;;;;8.47;6.10;;;6.80;1.00;;;;;;8282435;28;20236;-68
2022/12/21 15:06:39;;;;;;;11.93;7.27;;;6.80;1.00;;;;;;8269718;28;20303;-68
2022/12/21 15:10:43;;;;;;;8.00;5.70;;;6.80;1.00;;;;;;8267088;28;20176;-68
2022/12/21 15:14:53;;;;;;;9.43;6.50;;;6.70;1.00;;;;;;8285965;28;20386;-69
2022/12/21 15:19:05;;;;;;;9.37;5.63;;;6.80;1.00;;;;;;8266075;28;20291;-69
2022/12/21 15:23:30;;;;;;;9.90;5.70;;;6.70;1.00;;;;;;8266939;28;20226;-69
2022/12/21 15:28:08;;;;;;;8.50;5.90;;;6.70;1.00;;;;;;8265571;28;20612;-69
2022/12/21 15:32:29;;;;;;;14.07;6.73;;;6.70;1.00;;;;;;8267662;28;20258;-69
2022/12/21 15:36:36;;;;;;;9.70;7.00;;;6.70;1.00;;;;;;8265058;28;20200;-69
2022/12/21 15:40:37;;;;;;;9.80;6.60;;;6.70;1.00;;;;;;8266978;28;20197;-69
2022/12/21 15:45:05;;;;;;;8.87;6.63;;;6.80;1.00;;;;;;8268492;28;20216;-68
2022/12/21 15:49:40;;;;;;;8.10;6.00;;;6.80;1.00;;;;;;8270004;28;20207;-68
2022/12/21 15:53:41;;;;;;;10.97;6.23;;;6.80;1.00;;;;;;8280357;28;20180;-69
2022/12/21 15:57:48;;;;;;;9.23;6.33;;;6.70;1.00;;;;;;8267439;28;20180;-68
2022/12/21 16:01:52;;;;;;;10.40;6.87;;;6.70;1.00;;;;;;8278952;28;20179;-69
2022/12/21 16:06:09;;;;;;;11.00;7.70;;;6.70;1.00;;;;;;8284662;28;20200;-69
2022/12/21 16:10:36;;;;;;;9.93;6.90;;;6.70;1.00;;;;;;8281596;28;20194;-69
2022/12/21 16:14:39;;;;;;;11.43;7.80;;;6.80;1.00;;;;;;8261579;28;20192;-69
2022/12/21 16:18:40;;;;;;;10.37;7.03;;;6.80;1.00;;;;;;8274324;28;20397;-69
2022/12/21 16:22:41;;;;;;;11.77;7.30;;;6.80;1.00;;;;;;8266622;28;20198;-69
2022/12/21 16:26:43;;;;;;;10.53;6.90;;;6.80;1.00;;;;;;8271186;28;20209;-69
2022/12/21 16:31:03;;;;;;;11.30;7.30;;;6.80;1.00;;;;;;8266603;28;20183;-69
2022/12/21 16:35:14;;;;;;;11.03;7.17;;;6.80;4.00;;;;;;8278146;28;20220;-68
2022/12/21 16:39:16;;;;;;;10.80;7.33;;;6.80;14.80;;;;;;8272663;28;20195;-69
2022/12/21 16:43:20;;;;;;;11.73;6.97;;;6.80;19.40;;;;;;8286097;28;20199;-69
2022/12/21 16:47:23;;;;;;;8.50;5.37;;;6.90;56.20;;;;;;8271608;28;20210;-69
2022/12/21 16:51:37;;;;;;;9.50;6.93;;;6.90;53.80;;;;;;8288241;28;20210;-69
2022/12/21 16:55:38;;;;;;;8.47;6.07;;;6.90;22.20;;;;;;8283320;28;20262;-69
2022/12/21 16:59:48;;;;;;;9.90;6.10;;;6.90;78.20;;;;;;8260609;28;20227;-68
2022/12/21 17:04:03;;;;;;;8.63;6.73;;;7.00;40.80;;;;;;8270035;28;20189;-68
2022/12/21 17:08:25;;;;;;;8.23;5.73;;;7.00;5.60;;;;;;8273516;28;20555;-68
2022/12/21 17:12:26;;;;;;;8.43;5.73;;;7.10;90.40;;;;;;8268807;28;20593;-68
2022/12/21 17:16:42;;;;;;;7.20;5.23;;;7.10;58.40;;;;;;8274626;28;20519;-68
2022/12/21 17:20:43;;;;;;;7.00;5.40;;;7.10;30.50;;;;;;8284372;28;20199;-68
2022/12/21 17:25:00;;;;;;;8.47;5.77;;;7.10;80.30;;;;;;8288933;28;20221;-68
2022/12/21 17:29:03;;;;;;;6.43;4.77;;;7.20;16.50;;;;;;8277954;28;20243;-68
2022/12/21 17:33:21;;;;;;;6.13;4.73;;;7.20;1.00;;;;;;8277912;28;20289;-69
2022/12/21 17:37:25;;;;;;;9.57;5.67;;;7.30;44.10;;;;;;8272902;28;20202;-68
2022/12/21 17:41:27;;;;;;;7.67;5.57;;;7.30;1.00;;;;;;8269979;28;20620;-68
2022/12/21 17:45:28;;;;;;;9.20;5.77;;;7.30;1.00;;;;;;8274727;28;20215;-68
2022/12/21 17:49:29;;;;;;;7.83;5.90;;;7.30;1.00;;;;;;8268401;28;20219;-69
2022/12/21 17:53:30;;;;;;;8.07;5.77;;;7.30;1.00;;;;;;8274368;28;20298;-69
2022/12/21 17:57:31;;;;;;;8.87;5.60;;;7.30;1.00;;;;;;8274231;28;20214;-68
2022/12/21 18:01:34;;;;;;;9.30;6.43;;;7.30;1.00;;;;;;8268857;28;20198;-69
2022/12/21 18:05:34;;;;;;;11.40;7.17;;;7.30;1.00;;;;;;8275514;28;20210;-68
2022/12/21 18:09:36;;;;;;;9.93;6.40;;;7.30;1.00;;;;;;8268994;28;20250;-68
2022/12/21 18:13:37;;;;;;;9.10;6.47;;;7.30;1.00;;;;;;8276160;28;20499;-67
2022/12/21 18:17:53;;;;;;;10.47;7.03;;;7.30;1.00;;;;;;8269458;28;20522;-68
2022/12/21 18:21:54;;;;;;;9.27;6.47;;;7.30;1.00;;;;;;8287745;28;20188;-69
2022/12/21 18:25:55;;;;;;;12.57;7.67;;;7.20;1.00;;;;;;8269637;28;20309;-68
2022/12/21 18:29:56;;;;;;;10.60;7.07;;;7.20;1.00;;;;;;8265762;28;20268;-68
2022/12/21 18:33:59;;;;;;;10.77;7.30;;;7.20;1.00;;;;;;8280541;28;20317;-68
2022/12/21 18:38:02;;;;;;;10.77;7.50;;;7.20;1.00;;;;;;8264089;28;20188;-68
2022/12/21 18:42:12;;;;;;;11.23;6.83;;;7.30;1.00;;;;;;8269754;28;20468;-68
2022/12/21 18:46:15;;;;;;;12.60;7.53;;;7.20;1.00;;;;;;8268811;28;20298;-68
2022/12/21 18:50:19;;;;;;;11.43;7.27;;;7.20;1.00;;;;;;8272328;28;20240;-68
2022/12/21 18:54:22;;;;;;;10.43;6.50;;;7.10;1.00;;;;;;8281341;28;20196;-69
2022/12/21 18:58:23;;;;;;;12.87;8.27;;;7.00;1.00;;;;;;8267509;28;20238;-68
2022/12/21 19:02:29;;;;;;;12.10;7.37;;;6.80;20.40;;;;;;8288504;28;20196;-68
2022/12/21 19:06:32;;;;;;;12.33;8.00;;;6.70;99.90;;;;;;8271168;28;20222;-68
2022/12/21 19:10:34;;;;;;;9.10;6.40;;;6.60;99.90;;;;;;8273848;28;20188;-68
2022/12/21 19:14:35;;;;;;;9.97;7.30;;;6.50;99.90;;;;;;8268162;28;20187;-69
2022/12/21 19:18:39;;;;;;;13.20;8.47;;;6.50;99.90;;;;;;8271038;28;20242;-67
2022/12/21 19:22:40;;;;;;;10.37;7.07;;;6.40;1.00;;;;;;8274393;28;20273;-67
2022/12/21 19:26:41;;;;;;;13.77;8.17;;;6.40;1.00;;;;;;8271699;28;20214;-68
2022/12/21 19:30:43;;;;;;;10.87;7.27;;;6.50;1.00;;;;;;8267935;28;20179;-68
2022/12/21 19:34:44;;;;;;;9.93;6.73;;;6.60;1.00;;;;;;8284908;28;20322;-70
2022/12/21 19:38:45;;;;;;;12.77;6.73;;;6.70;1.00;;;;;;8269501;28;20203;-67
2022/12/21 19:42:46;;;;;;;10.37;6.07;;;6.80;1.00;;;;;;8270283;28;20199;-68
2022/12/21 19:46:47;;;;;;;9.57;6.40;;;6.90;1.00;;;;;;8270888;28;20240;-67
2022/12/21 19:50:48;;;;;;;12.30;6.60;;;7.00;99.90;;;;;;8265920;28;20211;-68
2022/12/21 19:54:49;;;;;;;8.77;6.17;;;7.00;99.90;;;;;;8280648;28;20201;-69
2022/12/21 19:58:56;;;;;;;11.40;6.53;;;7.00;99.90;;;;;;8264638;28;20202;-68
2022/12/21 20:02:56;;;;;;;8.70;6.60;;;7.10;99.90;;;;;;8279507;28;20227;-68
2022/12/21 20:06:57;;;;;;;10.43;6.30;;;7.10;99.90;;;;;;8264973;28;20215;-68
2022/12/21 20:11:01;;;;;;;11.77;7.80;;;6.90;99.90;;;;;;8275681;28;20238;-69
2022/12/21 20:15:02;;;;;;;10.33;7.30;;;6.70;99.90;;;;;;8291387;28;20198;-68
2022/12/21 20:19:10;;;;;;;10.00;7.00;;;6.50;99.90;;;;;;8294625;28;20191;-68
2022/12/21 20:23:11;;;;;;;10.70;6.70;;;6.30;1.00;;;;;;8277855;28;20290;-68
2022/12/21 20:27:32;;;;;;;13.20;8.30;;;6.10;21.70;;;;;;8274242;28;20211;-68
2022/12/21 20:31:35;;;;;;;12.77;7.73;;;6.00;99.90;;;;;;8278184;28;20274;-68
2022/12/21 20:35:36;;;;;;;10.00;7.03;;;6.00;99.90;;;;;;8274733;28;20226;-68
2022/12/21 20:39:36;;;;;;;8.60;6.33;;;5.90;1.00;;;;;;8277933;28;20459;-68
2022/12/21 20:43:46;;;;;;;10.37;6.63;;;5.90;1.00;;;;;;8271552;28;20495;-68
2022/12/21 20:47:48;;;;;;;6.67;5.50;;;5.80;1.00;;;;;;8288721;28;20460;-68
2022/12/21 20:51:49;;;;;;;7.20;5.70;;;5.80;1.00;;;;;;8272896;28;20279;-68
2022/12/21 21:00:11;;;;;;;8.40;5.93;;;5.60;1.00;;;;;;8274516;28;20234;-68
2022/12/21 21:04:12;;;;;;;8.97;5.90;;;5.50;1.00;;;;;;8272074;28;20215;-68
2022/12/21 21:08:15;;;;;;;8.17;6.03;;;5.40;92.40;;;;;;8279061;28;20195;-68
2022/12/21 21:12:16;;;;;;;10.33;6.50;;;5.40;99.90;;;;;;8274889;28;20180;-68
2022/12/21 21:16:22;;;;;;;9.07;6.33;;;5.40;99.90;;;;;;8276929;28;20195;-68
2022/12/21 21:23:00;;;;;;;10.27;7.30;;;5.40;99.90;;;;;;8269829;28;20187;-68
2022/12/21 21:24:48;;;;;;;11.23;7.10;;;5.40;99.90;;;;;;8272519;28;20514;-68
2022/12/21 21:28:49;;;;;;;8.40;6.03;;;5.40;84.00;;;;;;8286346;28;20299;-68
2022/12/21 21:32:54;;;;;;;8.70;6.50;;;5.40;99.90;;;;;;8275090;28;20227;-68
2022/12/21 21:36:57;;;;;;;8.63;6.07;;;5.40;99.90;;;;;;8288496;28;20396;-68
2022/12/21 21:45:17;;;;;;;9.50;6.27;;;5.40;99.90;;;;;;8271292;28;20242;-68
2022/12/21 21:49:29;;;;;;;7.97;5.57;;;5.40;1.00;;;;;;8269985;28;20179;-68
2022/12/21 21:53:30;;;;;;;8.03;5.57;;;5.30;1.00;;;;;;8271512;28;20273;-68
2022/12/21 21:57:33;;;;;;;9.10;6.27;;;5.20;1.00;;;;;;8287001;28;20218;-68
2022/12/21 22:01:34;;;;;;;9.97;6.37;;;5.10;99.90;;;;;;8284450;28;20214;-68
2022/12/21 22:05:35;;;;;;;8.60;5.53;;;5.00;99.90;;;;;;8274522;28;20230;-68
2022/12/21 22:09:36;;;;;;;10.23;5.77;;;4.90;99.90;;;;;;8273513;28;20249;-68